createdAt,value
2023-02-02T00:01:13.056Z,-1.00
2023-02-02T00:06:10.708Z,-1.10
2023-02-02T00:11:08.026Z,-1.00
2023-02-02T00:16:27.523Z,-1.00
2023-02-02T00:21:35.614Z,-1.00
2023-02-02T00:26:33.463Z,-1.00
2023-02-02T00:31:30.941Z,-0.90
2023-02-02T00:36:28.516Z,-1.00
2023-02-02T00:41:26.339Z,-1.10
2023-02-02T00:46:23.528Z,-1.10
2023-02-02T00:51:20.816Z,-1.20
2023-02-02T00:56:18.204Z,-1.10
2023-02-02T01:01:22.417Z,-1.20
2023-02-02T01:06:19.658Z,-1.20
2023-02-02T01:11:17.530Z,-1.30
2023-02-02T01:16:16.121Z,-1.20
2023-02-02T01:21:13.567Z,-1.20
2023-02-02T01:26:12.437Z,-1.30
2023-02-02T01:31:15.853Z,-1.40
2023-02-02T01:36:21.997Z,-1.30
2023-02-02T01:41:27.874Z,-1.40
2023-02-02T01:46:35.719Z,-1.50
2023-02-02T01:51:42.061Z,-1.50
2023-02-02T01:56:45.028Z,-1.50
2023-02-02T02:01:44.047Z,-1.60
2023-02-02T02:06:42.719Z,-1.60
2023-02-02T02:11:40.551Z,-1.60
2023-02-02T02:16:51.874Z,-1.60
2023-02-02T02:22:30.041Z,-1.70
2023-02-02T02:28:02.747Z,-1.80
2023-02-02T02:33:17.344Z,-1.90
2023-02-02T02:38:42.050Z,-1.80
2023-02-02T02:43:50.648Z,-1.90
2023-02-02T02:48:48.144Z,-1.90
2023-02-02T02:53:45.562Z,-2.10
2023-02-02T02:59:03.158Z,-2.10
2023-02-02T03:04:22.243Z,-2.00
2023-02-02T03:09:25.627Z,-2.00
2023-02-02T03:14:23.025Z,-2.20
2023-02-02T03:19:30.245Z,-2.30
2023-02-02T03:24:27.701Z,-2.20
2023-02-02T03:29:25.473Z,-2.10
2023-02-02T03:34:32.408Z,-2.00
2023-02-02T03:39:29.855Z,-2.00
2023-02-02T03:44:27.152Z,-2.10
2023-02-02T03:49:24.332Z,-2.30
2023-02-02T03:54:24.489Z,-2.30
2023-02-02T03:59:21.704Z,-2.20
2023-02-02T04:04:19.019Z,-2.20
2023-02-02T04:09:16.346Z,-2.30
2023-02-02T04:14:13.691Z,-2.40
2023-02-02T04:19:12.966Z,-2.50
2023-02-02T04:24:14.511Z,-2.60
2023-02-02T04:29:11.872Z,-2.70
2023-02-02T04:34:09.348Z,-2.70
2023-02-02T04:39:07.552Z,-2.70
2023-02-02T04:44:06.958Z,-2.60
2023-02-02T04:49:04.293Z,-2.70
2023-02-02T04:54:01.850Z,-2.60
2023-02-02T04:59:00.757Z,-2.50
2023-02-02T05:04:04.777Z,-2.30
2023-02-02T05:09:03.289Z,-2.40
2023-02-02T05:14:00.992Z,-2.30
2023-02-02T05:18:59.702Z,-2.40
2023-02-02T05:23:59.884Z,-2.50
2023-02-02T05:28:57.605Z,-2.50
2023-02-02T05:33:54.933Z,-2.50
2023-02-02T05:38:52.182Z,-2.60
2023-02-02T05:43:52.587Z,-2.60
2023-02-02T05:48:49.906Z,-2.40
2023-02-02T05:53:47.868Z,-2.40
2023-02-02T05:58:47.544Z,-2.50
2023-02-02T06:03:44.816Z,-2.40
2023-02-02T06:08:42.379Z,-2.50
2023-02-02T06:13:39.689Z,-2.40
2023-02-02T06:18:37.763Z,-2.30
2023-02-02T06:23:35.584Z,-2.30
2023-02-02T06:28:32.741Z,-2.40
2023-02-02T06:33:30.352Z,-2.40
2023-02-02T06:38:28.001Z,-2.30
2023-02-02T06:43:25.280Z,-2.30
2023-02-02T06:48:22.707Z,-2.20
2023-02-02T06:53:23.415Z,-2.10
2023-02-02T06:58:20.743Z,-1.80
2023-02-02T07:03:18.799Z,-1.70
2023-02-02T07:08:16.709Z,-1.40
2023-02-02T07:13:13.959Z,-1.30
2023-02-02T07:18:11.225Z,-1.00
2023-02-02T07:23:08.497Z,-1.00
2023-02-02T07:28:05.818Z,-0.90
2023-02-02T07:33:03.146Z,-0.70
2023-02-02T07:38:00.822Z,-0.50
2023-02-02T07:43:00.705Z,-0.40
2023-02-02T07:47:59.189Z,-0.20
2023-02-02T07:52:58.572Z,-0.10
2023-02-02T07:57:59.171Z,0.10
2023-02-02T08:02:56.775Z,0.50
2023-02-02T08:07:54.185Z,1.00
2023-02-02T08:12:51.646Z,1.50
2023-02-02T08:17:50.276Z,2.50
2023-02-02T08:22:47.848Z,3.10
2023-02-02T08:27:45.138Z,3.10
2023-02-02T08:32:42.407Z,3.70
2023-02-02T08:37:42.759Z,4.90
2023-02-02T08:42:40.203Z,6.40
2023-02-02T08:47:37.896Z,7.20
2023-02-02T08:52:35.319Z,8.50
2023-02-02T08:57:32.908Z,8.90
2023-02-02T09:02:30.280Z,7.60
2023-02-02T09:07:27.647Z,7.50
2023-02-02T09:12:25.688Z,7.90
2023-02-02T09:17:24.293Z,8.60
2023-02-02T09:22:22.145Z,9.20
2023-02-02T09:27:23.374Z,9.70
2023-02-02T09:32:21.000Z,9.70
2023-02-02T09:37:18.228Z,9.30
2023-02-02T09:42:35.015Z,9.80
2023-02-02T09:47:52.434Z,9.30
2023-02-02T09:53:07.921Z,9.20
2023-02-02T09:58:11.399Z,9.60
2023-02-02T10:03:37.790Z,10.30
2023-02-02T10:08:49.198Z,10.80
2023-02-02T10:13:48.825Z,11.20
2023-02-02T10:18:49.817Z,11.00
2023-02-02T10:23:47.100Z,10.90
2023-02-02T10:28:50.218Z,10.30
2023-02-02T10:34:02.507Z,10.50
2023-02-02T10:39:33.767Z,10.50
2023-02-02T10:44:39.832Z,9.70
2023-02-02T10:49:41.403Z,10.30
2023-02-02T10:54:58.733Z,9.90
2023-02-02T11:00:06.186Z,10.10
2023-02-02T11:05:22.031Z,9.50
2023-02-02T11:10:19.258Z,9.60
2023-02-02T11:15:29.173Z,9.20
2023-02-02T11:20:39.676Z,8.90
2023-02-02T11:25:37.943Z,8.80
2023-02-02T11:30:38.296Z,8.90
2023-02-02T11:35:35.450Z,8.60
2023-02-02T11:40:39.448Z,8.90
2023-02-02T11:45:40.086Z,9.30
2023-02-02T11:50:37.981Z,9.20
2023-02-02T11:55:35.719Z,9.30
2023-02-02T12:00:32.979Z,9.20
2023-02-02T12:05:36.137Z,9.00
2023-02-02T12:10:46.290Z,9.10
2023-02-02T12:16:03.637Z,9.20
2023-02-02T12:21:08.257Z,9.10
2023-02-02T12:26:32.490Z,8.90
2023-02-02T12:31:46.045Z,8.90
2023-02-02T12:37:09.415Z,8.90
2023-02-02T12:42:15.961Z,8.80
2023-02-02T12:47:31.771Z,8.70
2023-02-02T12:53:17.256Z,8.80
2023-02-02T12:58:53.545Z,8.90
2023-02-02T13:04:02.792Z,8.80
2023-02-02T13:09:14.278Z,8.60
2023-02-02T13:14:11.575Z,8.30
2023-02-02T13:19:15.203Z,8.10
2023-02-02T13:24:27.803Z,8.00
2023-02-02T13:29:55.949Z,8.20
2023-02-02T13:35:13.611Z,8.00
2023-02-02T13:40:21.181Z,7.80
2023-02-02T13:45:44.447Z,7.80
2023-02-02T13:51:11.649Z,7.90
2023-02-02T13:56:25.781Z,8.10
2023-02-02T14:01:25.388Z,7.90
2023-02-02T14:06:25.783Z,7.90
2023-02-02T14:11:35.973Z,8.00
2023-02-02T14:16:33.145Z,7.80
2023-02-02T14:21:42.426Z,7.80
2023-02-02T14:26:41.278Z,7.90
2023-02-02T14:31:53.030Z,7.70
2023-02-02T14:37:17.308Z,7.60
2023-02-02T14:43:02.136Z,7.30
2023-02-02T14:48:22.734Z,7.40
2023-02-02T14:53:25.789Z,7.20
2023-02-02T14:58:53.555Z,7.20
2023-02-02T15:03:55.253Z,7.00
2023-02-02T15:09:20.522Z,6.70
2023-02-02T15:14:20.256Z,6.60
2023-02-02T15:19:27.563Z,6.40
2023-02-02T15:24:28.539Z,6.20
2023-02-02T15:29:44.530Z,6.00
2023-02-02T15:34:47.118Z,5.90
2023-02-02T15:39:58.340Z,5.80
2023-02-02T15:44:55.627Z,5.70
2023-02-02T15:49:53.392Z,5.60
2023-02-02T15:54:58.994Z,5.40
2023-02-02T15:59:57.221Z,5.20
2023-02-02T16:04:54.775Z,5.20
2023-02-02T16:09:52.063Z,5.10
2023-02-02T16:14:54.419Z,5.20
2023-02-02T16:20:03.257Z,5.10
2023-02-02T16:25:06.308Z,4.90
2023-02-02T16:30:14.739Z,4.90
2023-02-02T16:35:44.763Z,4.80
2023-02-02T16:40:42.672Z,4.60
2023-02-02T16:45:45.979Z,4.30
2023-02-02T16:50:43.736Z,4.30
2023-02-02T16:55:51.274Z,4.10
2023-02-02T17:01:16.866Z,3.80
2023-02-02T17:06:14.525Z,3.70
2023-02-02T17:11:27.130Z,3.70
2023-02-02T17:16:25.089Z,3.70
2023-02-02T17:21:25.472Z,3.90
2023-02-02T17:26:23.023Z,4.00
2023-02-02T17:31:20.414Z,3.80
2023-02-02T17:36:17.916Z,3.80
2023-02-02T17:41:15.264Z,3.70
2023-02-02T17:46:15.575Z,3.60
2023-02-02T17:51:17.720Z,3.60
2023-02-02T17:56:15.076Z,3.60
2023-02-02T18:01:13.891Z,3.50
2023-02-02T18:06:11.834Z,3.50
2023-02-02T18:11:12.652Z,3.40
2023-02-02T18:16:11.168Z,3.30
2023-02-02T18:21:12.208Z,3.10
2023-02-02T18:26:18.815Z,3.00
2023-02-02T18:31:19.622Z,3.00
2023-02-02T18:36:20.138Z,2.90
2023-02-02T18:41:18.910Z,3.10
2023-02-02T18:46:17.429Z,3.20
2023-02-02T18:51:18.331Z,3.30
2023-02-02T18:56:17.483Z,3.70
2023-02-02T19:01:17.105Z,3.80
2023-02-02T19:06:33.380Z,3.90
2023-02-02T19:11:44.018Z,3.90
2023-02-02T19:16:42.024Z,4.00
2023-02-02T19:21:41.483Z,3.90
2023-02-02T19:26:45.648Z,3.80
2023-02-02T19:31:43.501Z,3.80
2023-02-02T19:36:46.461Z,3.60
2023-02-02T19:41:44.450Z,3.50
2023-02-02T19:46:48.352Z,3.30
2023-02-02T19:51:52.693Z,3.30
2023-02-02T19:56:52.202Z,3.10
2023-02-02T20:01:50.919Z,3.00
2023-02-02T20:06:58.484Z,2.80
2023-02-02T20:11:56.759Z,2.80
2023-02-02T20:16:59.741Z,2.60
2023-02-02T20:21:57.545Z,2.70
2023-02-02T20:26:59.214Z,2.70
2023-02-02T20:31:59.346Z,2.60
2023-02-02T20:37:05.823Z,2.50
2023-02-02T20:42:03.924Z,2.50
2023-02-02T20:47:01.954Z,2.40
2023-02-02T20:52:02.437Z,2.40
2023-02-02T20:57:00.080Z,2.40
2023-02-02T21:01:58.809Z,2.40
2023-02-02T21:06:56.653Z,2.30
2023-02-02T21:11:53.877Z,2.30
2023-02-02T21:16:55.346Z,2.40
2023-02-02T21:21:57.207Z,2.30
2023-02-02T21:26:54.457Z,2.40
2023-02-02T21:31:56.703Z,2.40
2023-02-02T21:36:57.412Z,2.50
2023-02-02T21:42:09.245Z,2.90
2023-02-02T21:47:37.747Z,3.30
2023-02-02T21:52:39.821Z,3.90
2023-02-02T21:57:37.707Z,4.00
2023-02-02T22:02:45.106Z,4.10
2023-02-02T22:07:46.463Z,4.10
2023-02-02T22:12:43.778Z,3.90
2023-02-02T22:17:42.136Z,3.80
2023-02-02T22:22:46.458Z,3.70
2023-02-02T22:27:51.792Z,3.70
2023-02-02T22:32:49.494Z,3.50
2023-02-02T22:37:47.063Z,3.40
2023-02-02T22:42:44.485Z,3.40
2023-02-02T22:47:41.795Z,3.40
2023-02-02T22:52:38.992Z,3.40
2023-02-02T22:57:36.857Z,3.40
2023-02-02T23:02:34.998Z,3.40
2023-02-02T23:07:32.888Z,3.40
2023-02-02T23:12:30.153Z,3.30
2023-02-02T23:17:27.394Z,3.00
2023-02-02T23:22:24.637Z,2.90
2023-02-02T23:27:22.133Z,2.80
2023-02-02T23:32:19.666Z,2.70
2023-02-02T23:37:16.899Z,2.60
2023-02-02T23:42:14.210Z,2.40
2023-02-02T23:47:11.531Z,2.30
2023-02-02T23:52:08.937Z,2.30
2023-02-02T23:57:06.426Z,2.50
